Lake View Terrace, California
Current Conditions -  °F | °C
As of 6:53 PM on Monday 20 Oct 2014 (Local Time) from KBUR Reporting Station
Clear Clear  
Wind Chill: 69°   Ceiling: Unl
Heat Index: 69°   Visibility: 10mi
Dew Point: 59°   Wind: 6mph
Humidity: 70%   Direction: 180°S
Pressure: 29.88"   Gusts: NA
Location:  34.3277°N, 118.389°W
Report Text: KBUR 210153Z 18005KT 10SM CLR 21/15 A2988 RMK AO2 SLP107 T02060150
Loading
Personal Weather Stations






























Interactive Weather Map
Tropical Storm Tracking
New forecast layout! Learn more

10-Day Weather Forecast

Advertisements
Track Severe Weather on mobile